Time;durP1;ratioP1;P1;durP2;ratioP2;P2;SDS_P1;SDS_P2;PMS_P1;PMS_P2;Temp;Humidity;BMP_temperature;BMP_pressure;BME280_temperature;BME280_humidity;BME280_pressure;Samples;Min_cycle;Max_cycle;Signal;HPM_P1;HPM_P2
2022/11/12 00:00:35;;;;;;;34.55;5.95;;;;;;;15.90;100.00;101942.56;5081415;28;20047;-64
2022/11/12 00:03:01;;;;;;;32.83;4.60;;;;;;;15.94;100.00;101941.09;5091819;28;20028;-65
2022/11/12 00:05:27;;;;;;;24.08;4.88;;;;;;;15.94;100.00;101963.66;5090003;28;20135;-68
2022/11/12 00:07:53;;;;;;;30.33;5.10;;;;;;;15.97;100.00;101971.38;5118674;28;20039;-67
2022/11/12 00:10:18;;;;;;;32.80;4.70;;;;;;;15.99;100.00;101957.59;5104144;28;20031;-66
2022/11/12 00:12:43;;;;;;;25.20;5.18;;;;;;;16.02;100.00;101940.06;5113633;28;20039;-66
2022/11/12 00:15:10;;;;;;;36.20;5.65;;;;;;;15.99;100.00;101933.16;5092063;28;20059;-65
2022/11/12 00:17:36;;;;;;;36.13;5.72;;;;;;;16.01;100.00;101947.38;5106193;28;20032;-66
2022/11/12 00:20:01;;;;;;;37.80;6.03;;;;;;;15.98;100.00;101929.59;5098750;28;20032;-66
2022/11/12 00:22:29;;;;;;;31.50;5.55;;;;;;;16.02;100.00;101937.34;5116619;28;20024;-67
2022/11/12 00:24:55;;;;;;;29.77;5.60;;;;;;;16.07;100.00;101964.72;5089735;28;20497;-68
2022/11/12 00:27:20;;;;;;;29.35;5.35;;;;;;;16.09;100.00;101927.31;5089921;28;20042;-69
2022/11/12 00:29:46;;;;;;;31.13;5.05;;;;;;;16.06;100.00;101927.72;5097226;28;20032;-65
2022/11/12 00:32:11;;;;;;;35.35;5.03;;;;;;;16.06;100.00;101935.88;5102728;28;20032;-66
2022/11/12 00:34:37;;;;;;;38.00;5.15;;;;;;;16.09;100.00;101946.31;5114369;28;20035;-66
2022/11/12 00:37:03;;;;;;;30.48;6.05;;;;;;;16.06;100.00;101927.72;5108549;28;20242;-65
2022/11/12 00:39:28;;;;;;;40.15;6.00;;;;;;;16.05;100.00;101923.34;5106711;28;20028;-70
2022/11/12 00:41:54;;;;;;;34.78;5.57;;;;;;;15.98;100.00;101926.88;5114844;28;20042;-66
2022/11/12 00:44:20;;;;;;;30.63;5.78;;;;;;;15.93;100.00;101934.00;5102753;28;20023;-67
2022/11/12 00:46:46;;;;;;;30.50;5.10;;;;;;;15.93;100.00;101917.72;5113518;28;20073;-65
2022/11/12 00:49:11;;;;;;;34.28;5.70;;;;;;;16.01;100.00;101916.69;5074630;28;20450;-66
2022/11/12 00:51:37;;;;;;;37.60;5.93;;;;;;;16.02;100.00;101943.59;5087161;28;20036;-65
2022/11/12 00:54:04;;;;;;;41.42;5.80;;;;;;;16.00;100.00;101926.69;5115805;28;20126;-65
2022/11/12 00:56:29;;;;;;;35.65;6.85;;;;;;;15.82;100.00;101907.47;5103009;28;20398;-65
2022/11/12 00:58:54;;;;;;;37.17;5.88;;;;;;;15.94;100.00;101941.09;5110084;28;20069;-66
2022/11/12 01:01:20;;;;;;;39.67;6.18;;;;;;;15.89;100.00;101927.28;5110439;28;20056;-66
2022/11/12 01:03:46;;;;;;;31.17;5.50;;;;;;;15.95;100.00;101938.16;5066617;28;20503;-64
2022/11/12 01:06:17;;;;;;;36.88;5.47;;;;;;;15.98;100.00;101940.47;5113559;28;20094;-68
2022/11/12 01:08:43;;;;;;;42.72;6.82;;;;;;;15.93;100.00;101934.84;5105185;28;20046;-71
2022/11/12 01:11:08;;;;;;;37.53;5.80;;;;;;;15.97;100.00;101949.66;5109065;28;20040;-65
2022/11/12 01:13:35;;;;;;;36.67;5.80;;;;;;;15.98;100.00;101953.22;5112406;28;20041;-67
2022/11/12 01:16:21;;;;;;;34.95;6.65;;;;;;;16.01;100.00;101952.78;5101602;28;20078;-66
2022/11/12 01:18:51;;;;;;;35.75;5.75;;;;;;;16.00;100.00;101961.16;5093931;28;20020;-65
2022/11/12 01:21:17;;;;;;;32.15;5.15;;;;;;;16.02;100.00;101959.88;5110267;28;20092;-67
2022/11/12 01:23:42;;;;;;;38.08;5.53;;;;;;;15.98;100.00;101951.31;5104745;28;20087;-65
2022/11/12 01:26:10;;;;;;;31.85;5.53;;;;;;;16.05;100.00;101948.63;5114307;28;20036;-75
2022/11/12 01:28:36;;;;;;;35.80;5.43;;;;;;;16.07;100.00;101951.13;5098286;28;20107;-81
2022/11/12 01:31:35;;;;;;;36.63;5.88;;;;;;;16.12;100.00;101956.75;5090331;28;20028;-67
2022/11/12 01:34:20;;;;;;;31.52;5.38;;;;;;;16.06;100.00;101972.03;5054904;28;20113;-65
2022/11/12 01:36:46;;;;;;;37.17;5.90;;;;;;;16.05;100.00;101973.06;5052171;28;20041;-65
2022/11/12 01:39:12;;;;;;;29.08;5.07;;;;;;;16.09;100.00;101977.06;5065613;28;20500;-66
2022/11/12 01:41:40;;;;;;;39.00;6.25;;;;;;;16.10;100.00;101975.16;5062094;28;20064;-65
2022/11/12 01:44:12;;;;;;;38.45;6.30;;;;;;;16.05;100.00;101959.47;5055522;28;20044;-66
2022/11/12 01:46:53;;;;;;;40.92;6.25;;;;;;;16.00;100.00;101955.72;5043863;28;20118;-65
2022/11/12 01:49:34;;;;;;;33.22;5.57;;;;;;;16.05;100.00;101974.94;5047907;28;20029;-65
2022/11/12 01:52:29;;;;;;;36.47;6.10;;;;;;;16.03;100.00;101972.44;5071850;28;20070;-64
2022/11/12 01:55:04;;;;;;;34.10;5.90;;;;;;;15.95;100.00;101951.72;5057961;28;20076;-66
2022/11/12 01:57:38;;;;;;;32.03;5.85;;;;;;;16.08;100.00;101985.38;5062089;28;20447;-65
2022/11/12 02:00:09;;;;;;;37.40;6.20;;;;;;;16.10;100.00;101996.88;5054973;28;20101;-65
2022/11/12 02:02:36;;;;;;;34.75;6.18;;;;;;;16.10;100.00;101999.59;5060543;28;20032;-64
2022/11/12 02:05:04;;;;;;;38.45;5.45;;;;;;;16.05;100.00;101993.94;5067035;28;20029;-64
2022/11/12 02:07:31;;;;;;;36.15;5.60;;;;;;;16.08;100.00;101997.06;5066678;28;20039;-64
2022/11/12 02:10:01;;;;;;;33.35;5.65;;;;;;;16.17;100.00;102000.44;5084211;28;20116;-65
2022/11/12 02:15:11;;;;;;;39.92;6.05;;;;;;;16.08;100.00;101985.38;5092753;28;20519;-65
2022/11/12 02:17:36;;;;;;;33.25;5.10;;;;;;;16.15;100.00;101983.50;5111484;28;20490;-65
2022/11/12 02:20:02;;;;;;;33.55;5.78;;;;;;;16.12;100.00;101986.63;5065757;28;20030;-67
2022/11/12 02:22:28;;;;;;;44.95;6.45;;;;;;;16.14;100.00;101984.56;5096084;28;20032;-66
2022/11/12 02:24:53;;;;;;;31.80;5.57;;;;;;;16.10;100.00;101978.72;5070576;28;20091;-65
2022/11/12 02:27:19;;;;;;;34.95;5.93;;;;;;;16.03;100.00;101966.19;5106534;28;20507;-67
2022/11/12 02:29:45;;;;;;;35.80;5.85;;;;;;;16.15;100.00;101986.22;5079447;28;20028;-66
2022/11/12 02:32:13;;;;;;;34.80;5.90;;;;;;;16.15;100.00;101983.50;5114460;28;20035;-64
2022/11/12 02:34:39;;;;;;;42.10;6.18;;;;;;;16.12;100.00;101981.22;5085167;28;20024;-66
2022/11/12 02:37:05;;;;;;;36.13;6.47;;;;;;;16.08;100.00;101986.22;5090730;28;20032;-64
2022/11/12 02:39:31;;;;;;;45.67;6.35;;;;;;;16.07;100.00;101989.16;5092461;28;20550;-64
2022/11/12 02:41:56;;;;;;;35.60;5.40;;;;;;;16.08;100.00;101998.97;5101759;28;20048;-66
2022/11/12 02:44:22;;;;;;;36.22;5.93;;;;;;;16.10;100.00;102010.47;5096287;28;20077;-66
2022/11/12 02:46:47;;;;;;;40.33;5.55;;;;;;;16.04;100.00;102016.72;5069365;28;20039;-66
2022/11/12 02:49:13;;;;;;;37.10;5.93;;;;;;;16.10;100.00;102029.47;5105545;28;20031;-64
2022/11/12 02:51:38;;;;;;;36.40;5.40;;;;;;;16.09;100.00;102022.34;5093422;28;20043;-64
2022/11/12 02:54:04;;;;;;;42.00;6.70;;;;;;;16.06;100.00;102031.75;5101037;28;20043;-68
2022/11/12 02:56:29;;;;;;;37.38;6.10;;;;;;;16.07;100.00;102038.03;5096111;28;20028;-66
2022/11/12 02:58:54;;;;;;;39.63;6.07;;;;;;;16.08;100.00;102024.22;5105056;28;20024;-67
2022/11/12 03:01:20;;;;;;;39.95;6.32;;;;;;;16.08;100.00;102013.38;5106570;28;20052;-68
2022/11/12 03:03:45;;;;;;;36.78;6.57;;;;;;;15.98;100.00;101991.22;5112424;28;20031;-70
2022/11/12 03:06:22;;;;;;;41.05;6.15;;;;;;;16.10;100.00;102013.19;5085247;28;20050;-65
2022/11/12 03:08:47;;;;;;;36.97;6.13;;;;;;;16.07;100.00;102010.88;5097190;28;20032;-65
2022/11/12 03:11:15;;;;;;;33.05;5.47;;;;;;;16.06;100.00;102020.91;5093252;28;20616;-66
2022/11/12 03:13:41;;;;;;;38.10;6.35;;;;;;;16.05;100.00;102010.22;5108411;28;20048;-66
2022/11/12 03:16:06;;;;;;;38.15;6.57;;;;;;;16.11;100.00;102012.13;5100739;28;20119;-64
2022/11/12 03:18:32;;;;;;;45.10;7.05;;;;;;;16.14;100.00;102012.53;5105882;28;20027;-64
2022/11/12 03:20:58;;;;;;;44.50;6.50;;;;;;;16.19;100.00;102014.63;5113381;28;20023;-64
2022/11/12 03:23:25;;;;;;;39.85;5.70;;;;;;;16.18;100.00;102018.41;5094762;28;20044;-66
2022/11/12 03:25:50;;;;;;;35.13;6.28;;;;;;;16.06;100.00;102011.91;5088699;28;20103;-64
2022/11/12 03:28:16;;;;;;;31.08;5.65;;;;;;;16.21;100.00;102032.41;5119711;28;20059;-67
2022/11/12 03:30:42;;;;;;;33.15;5.47;;;;;;;16.14;100.00;102023.41;5116031;28;20433;-64
2022/11/12 03:33:09;;;;;;;36.25;5.88;;;;;;;16.26;100.00;102047.22;5092178;28;20034;-64
2022/11/12 03:35:55;;;;;;;39.97;6.57;;;;;;;16.32;100.00;102032.81;5108177;28;20093;-65
2022/11/12 03:38:20;;;;;;;43.30;6.68;;;;;;;16.29;100.00;102046.81;5058051;28;20419;-64
2022/11/12 03:40:46;;;;;;;40.42;7.18;;;;;;;16.16;100.00;102025.94;5058375;28;20041;-65
2022/11/12 03:43:11;;;;;;;37.33;5.93;;;;;;;16.21;100.00;102047.88;5025452;28;20049;-66
2022/11/12 03:45:36;;;;;;;43.17;6.15;;;;;;;16.26;100.00;102061.69;5012170;28;20064;-67
2022/11/12 03:48:02;;;;;;;42.60;6.07;;;;;;;16.23;100.00;102047.66;5054697;28;20048;-64
2022/11/12 03:50:29;;;;;;;37.78;6.57;;;;;;;16.24;100.00;102039.31;5058201;28;20033;-64
2022/11/12 03:53:14;;;;;;;34.45;5.50;;;;;;;16.35;100.00;102057.69;5057717;28;20033;-64
2022/11/12 03:55:39;;;;;;;39.17;6.78;;;;;;;16.25;100.00;102046.41;5018038;28;20050;-65
2022/11/12 03:58:08;;;;;;;37.85;6.07;;;;;;;16.34;100.00;102066.91;5015467;28;20076;-65
2022/11/12 04:00:33;;;;;;;41.80;6.60;;;;;;;16.33;100.00;102069.84;5020984;28;20055;-64
2022/11/12 04:02:59;;;;;;;37.45;6.47;;;;;;;16.24;100.00;102071.06;5037736;28;20124;-65
2022/11/12 04:10:56;;;;;;;31.27;5.65;;;;;;;16.31;100.00;102074.63;5065472;28;20047;-69
2022/11/12 04:13:28;;;;;;;36.97;6.32;;;;;;;16.28;100.00;102065.00;5067873;28;20041;-70
2022/11/12 04:21:50;;;;;;;39.90;6.30;;;;;;;16.21;100.00;102078.56;5080566;28;20051;-67
2022/11/12 04:27:04;;;;;;;38.92;6.80;;;;;;;16.23;100.00;102097.38;5091722;28;20066;-68
2022/11/12 04:32:14;;;;;;;39.03;6.53;;;;;;;16.18;100.00;102105.31;5112854;28;20043;-72
2022/11/12 04:34:42;;;;;;;41.28;7.03;;;;;;;16.18;100.00;102108.84;5123531;28;20024;-65
2022/11/12 04:37:08;;;;;;;41.45;5.53;;;;;;;16.18;100.00;102110.72;5118215;28;20038;-66
2022/11/12 04:39:33;;;;;;;44.53;6.65;;;;;;;16.17;100.00;102109.91;5116957;28;20024;-66
2022/11/12 04:44:58;;;;;;;33.47;6.65;;;;;;;16.14;100.00;102113.03;5089120;28;20043;-65
2022/11/12 04:47:24;;;;;;;36.83;6.70;;;;;;;16.21;100.00;102110.31;5095879;28;20035;-69
2022/11/12 04:49:50;;;;;;;40.35;5.57;;;;;;;16.18;100.00;102102.59;5096833;28;20043;-67
2022/11/12 04:52:15;;;;;;;43.25;6.80;;;;;;;16.19;100.00;102113.25;5106933;28;20039;-68
2022/11/12 04:54:41;;;;;;;34.22;5.75;;;;;;;16.18;100.00;102113.44;5114409;28;20019;-68
2022/11/12 04:57:06;;;;;;;49.92;7.13;;;;;;;16.20;100.00;102111.38;5103160;28;20031;-69
2022/11/12 04:59:31;;;;;;;36.90;6.00;;;;;;;16.20;100.00;102114.09;5103537;28;20057;-69
2022/11/12 05:01:57;;;;;;;42.88;6.82;;;;;;;16.13;100.00;102124.09;5113489;28;20146;-70
2022/11/12 05:04:26;;;;;;;49.05;7.72;;;;;;;16.13;100.00;102115.94;5123258;28;20036;-69
2022/11/12 05:07:08;;;;;;;43.88;6.05;;;;;;;16.08;100.00;102132.00;5109651;28;20230;-67
2022/11/12 05:09:34;;;;;;;44.72;7.13;;;;;;;16.12;100.00;102131.38;5109593;28;20032;-79
2022/11/12 05:11:59;;;;;;;44.30;5.97;;;;;;;16.13;100.00;102137.69;5111208;28;20716;-80
2022/11/12 05:14:25;;;;;;;36.58;5.80;;;;;;;15.98;100.00;102113.38;5108945;28;20020;-70
2022/11/12 05:16:50;;;;;;;34.17;6.25;;;;;;;16.12;100.00;102134.09;5088209;28;20490;-70
2022/11/12 05:19:16;;;;;;;39.10;5.97;;;;;;;16.19;100.00;102131.41;5105820;28;20048;-65
2022/11/12 05:24:26;;;;;;;38.88;5.80;;;;;;;16.06;100.00;102134.06;5097415;28;20233;-70
2022/11/12 05:26:52;;;;;;;37.22;6.10;;;;;;;16.04;100.00;102138.88;5095895;28;20147;-64
2022/11/12 05:29:17;;;;;;;36.25;5.20;;;;;;;16.05;100.00;102143.28;5081256;28;20028;-65
2022/11/12 05:31:43;;;;;;;38.13;6.60;;;;;;;15.97;100.00;102122.56;5096729;28;20039;-65
2022/11/12 05:34:09;;;;;;;38.63;6.03;;;;;;;16.07;100.00;102149.34;5097211;28;20023;-72
2022/11/12 05:36:34;;;;;;;45.53;6.80;;;;;;;15.98;100.00;102145.97;5096565;28;20450;-66
2022/11/12 05:38:59;;;;;;;40.88;6.88;;;;;;;16.07;100.00;102165.63;5106314;28;20031;-68
2022/11/12 05:41:25;;;;;;;42.97;6.20;;;;;;;16.09;100.00;102163.53;5089930;28;20036;-66
2022/11/12 05:43:52;;;;;;;45.83;6.30;;;;;;;15.97;100.00;102172.28;5106839;28;20684;-64
2022/11/12 05:46:18;;;;;;;47.15;6.88;;;;;;;16.03;100.00;102177.94;5097884;28;20042;-69
2022/11/12 05:48:43;;;;;;;39.83;6.45;;;;;;;16.00;100.00;102173.75;5105104;28;20020;-64
2022/11/12 05:51:09;;;;;;;34.17;6.03;;;;;;;16.04;100.00;102176.91;5074850;28;20035;-65
2022/11/12 05:53:34;;;;;;;39.97;6.22;;;;;;;16.10;100.00;102181.53;5111293;28;20129;-67
2022/11/12 05:56:05;;;;;;;40.90;6.82;;;;;;;15.97;100.00;102158.69;5084966;28;20131;-64
2022/11/12 05:58:31;;;;;;;31.42;5.88;;;;;;;16.01;100.00;102190.88;5064963;28;20047;-82
2022/11/12 06:00:57;;;;;;;43.97;6.70;;;;;;;16.08;100.00;102199.88;5106403;28;20147;-65
2022/11/12 06:03:23;;;;;;;51.50;6.85;;;;;;;15.91;100.00;102175.78;5091515;28;20051;-65
2022/11/12 06:05:56;;;;;;;42.15;6.40;;;;;;;16.02;100.00;102198.81;5104294;28;20036;-66
2022/11/12 06:08:21;;;;;;;41.53;7.13;;;;;;;16.07;100.00;102200.94;5115156;28;20046;-65
2022/11/12 06:10:51;;;;;;;50.35;6.78;;;;;;;16.05;100.00;102208.44;5102559;28;20054;-65
2022/11/12 06:13:17;;;;;;;34.95;5.53;;;;;;;15.95;100.00;102217.78;5108637;28;20027;-65
2022/11/12 06:15:43;;;;;;;43.47;6.47;;;;;;;15.96;100.00;102208.63;5105319;28;20096;-65
2022/11/12 06:18:09;;;;;;;42.80;6.53;;;;;;;15.90;100.00;102195.00;5097612;28;20063;-70
2022/11/12 06:20:35;;;;;;;46.15;7.10;;;;;;;15.96;100.00;102203.19;5084528;28;20484;-66
2022/11/12 06:23:01;;;;;;;37.97;6.07;;;;;;;15.91;100.00;102200.22;5093515;28;20049;-65
2022/11/12 06:25:26;;;;;;;49.53;7.00;;;;;;;15.92;100.00;102204.59;5109082;28;20043;-71
2022/11/12 06:27:52;;;;;;;38.65;6.32;;;;;;;15.86;100.00;102197.28;5080502;28;20036;-65
2022/11/12 06:30:18;;;;;;;46.60;6.80;;;;;;;15.76;100.00;102214.94;5082057;28;20040;-73
2022/11/12 06:32:47;;;;;;;46.13;6.40;;;;;;;15.72;100.00;102231.63;5080654;28;20024;-65
2022/11/12 06:35:14;;;;;;;43.40;6.72;;;;;;;15.72;100.00;102236.22;5099145;28;20106;-65
2022/11/12 06:37:40;;;;;;;47.42;6.80;;;;;;;15.69;100.00;102242.91;5078045;28;20032;-65
2022/11/12 06:40:09;;;;;;;44.20;6.78;;;;;;;15.64;100.00;102234.47;5081765;28;20024;-66
2022/11/12 06:42:34;;;;;;;41.40;6.35;;;;;;;15.63;100.00;102250.94;5060671;28;20053;-67
2022/11/12 06:45:00;;;;;;;35.75;6.07;;;;;;;15.60;100.00;102254.06;5053340;28;20044;-67
2022/11/12 06:47:25;;;;;;;42.75;6.50;;;;;;;15.54;100.00;102252.13;5019774;28;20056;-65
2022/11/12 06:49:51;;;;;;;41.90;6.53;;;;;;;15.23;100.00;102216.22;5057100;28;20032;-65
2022/11/12 06:52:16;;;;;;;43.03;6.88;;;;;;;15.44;100.00;102250.59;5063444;28;20533;-64
2022/11/12 06:54:42;;;;;;;48.60;6.13;;;;;;;15.42;100.00;102249.94;5062941;28;20032;-65
2022/11/12 06:57:08;;;;;;;43.75;6.38;;;;;;;15.46;100.00;102263.94;5071985;28;20052;-67
2022/11/12 06:59:33;;;;;;;49.03;6.55;;;;;;;15.37;100.00;102268.69;5071137;28;20040;-70
2022/11/12 07:01:58;;;;;;;52.50;7.95;;;;;;;15.39;100.00;102280.16;5044228;28;20053;-67
2022/11/12 07:04:24;;;;;;;42.30;7.00;;;;;;;15.38;100.00;102286.63;5057625;28;20038;-76
2022/11/12 07:06:50;;;;;;;48.42;6.93;;;;;;;15.24;100.00;102277.53;5063824;28;20060;-86
2022/11/12 07:09:15;;;;;;;50.92;6.30;;;;;;;15.35;100.00;102314.13;5063975;28;20055;-66
2022/11/12 07:11:41;;;;;;;41.95;7.15;;;;;;;15.35;100.00;102311.44;5055016;28;20044;-68
2022/11/12 07:14:06;;;;;;;47.40;6.28;;;;;;;15.39;100.00;102318.13;5075048;28;20051;-71
2022/11/12 07:16:32;;;;;;;47.30;7.60;;;;;;;15.41;100.00;102321.50;5112636;28;20070;-84
2022/11/12 07:18:58;;;;;;;41.83;6.97;;;;;;;15.41;100.00;102343.22;5085049;28;20031;-66
2022/11/12 07:21:23;;;;;;;44.22;6.13;;;;;;;15.42;100.00;102350.31;5089581;28;20035;-84
2022/11/12 07:23:49;;;;;;;42.95;6.57;;;;;;;15.47;100.00;102349.75;5109204;28;20401;-85
2022/11/12 07:26:20;;;;;;;53.33;7.65;;;;;;;15.54;100.00;102341.66;5100577;28;20124;-67
2022/11/12 07:28:47;;;;;;;40.72;6.97;;;;;;;15.50;100.00;102344.75;5119313;28;20036;-67
2022/11/12 07:31:14;;;;;;;40.65;6.60;;;;;;;15.51;100.00;102346.44;5092650;28;20023;-66
2022/11/12 07:33:39;;;;;;;47.40;7.03;;;;;;;15.53;100.00;102357.09;5108361;28;20028;-74
2022/11/12 07:36:07;;;;;;;46.58;7.20;;;;;;;15.51;100.00;102365.44;5117561;28;20038;-79
2022/11/12 07:38:35;;;;;;;47.00;6.85;;;;;;;15.55;100.00;102378.59;5067631;28;20036;-81
2022/11/12 07:41:04;;;;;;;49.13;6.45;;;;;;;15.59;100.00;102388.88;5097553;28;20089;-68
2022/11/12 07:43:31;;;;;;;40.55;6.05;;;;;;;15.52;100.00;102382.53;5115444;28;20057;-65
2022/11/12 07:46:01;;;;;;;38.25;5.65;;;;;;;15.56;100.00;102391.97;5091632;28;20028;-66
2022/11/12 07:48:28;;;;;;;40.40;7.05;;;;;;;15.55;100.00;102408.44;5103398;28;20020;-71
2022/11/12 07:51:24;;;;;;;43.53;6.55;;;;;;;15.63;100.00;102395.59;5092711;28;20034;-68
2022/11/12 07:53:52;;;;;;;48.38;7.60;;;;;;;15.67;100.00;102401.53;5051669;28;20044;-70
2022/11/12 07:56:20;;;;;;;41.95;5.50;;;;;;;15.63;100.00;102411.88;5073478;28;20049;-67
2022/11/12 07:58:46;;;;;;;53.28;7.38;;;;;;;15.44;100.00;102390.81;5062869;28;20127;-69
2022/11/12 08:01:26;;;;;;;44.22;6.40;;;;;;;15.66;100.00;102416.97;5063353;28;20498;-68
2022/11/12 08:03:52;;;;;;;41.53;6.38;;;;;;;15.56;100.00;102402.81;5066698;28;20538;-66
2022/11/12 08:06:19;;;;;;;38.97;6.60;;;;;;;15.67;100.00;102421.34;5061477;28;20518;-66
2022/11/12 08:08:44;;;;;;;49.83;6.60;;;;;;;15.78;100.00;102414.56;5048775;28;20036;-65
2022/11/12 08:11:10;;;;;;;47.30;7.18;;;;;;;15.73;100.00;102390.72;5075682;28;20033;-66
2022/11/12 08:13:35;;;;;;;44.72;6.20;;;;;;;15.81;100.00;102413.34;5074948;28;20036;-66
2022/11/12 08:16:01;;;;;;;41.38;6.32;;;;;;;15.79;100.00;102431.69;5058105;28;20032;-66
2022/11/12 08:18:26;;;;;;;50.70;8.40;;;;;;;15.60;100.00;102412.28;5058258;28;20058;-65
2022/11/12 08:20:52;;;;;;;50.75;7.97;;;;;;;15.79;100.00;102440.66;5065509;28;20029;-66
2022/11/12 08:23:17;;;;;;;57.42;8.10;;;;;;;15.82;100.00;102459.28;5056045;28;20123;-65
2022/11/12 08:25:43;;;;;;;61.72;9.50;;;;;;;15.88;100.00;102447.63;5094829;28;20127;-65
2022/11/12 08:28:08;;;;;;;56.75;7.55;;;;;;;15.90;100.00;102447.47;5107324;28;20059;-66
2022/11/12 08:30:34;;;;;;;49.90;6.53;;;;;;;15.92;100.00;102456.22;5103204;28;20102;-66
2022/11/12 08:33:04;;;;;;;48.13;6.47;;;;;;;15.86;100.00;102460.59;5111576;28;20076;-65
2022/11/12 08:35:30;;;;;;;52.13;7.22;;;;;;;15.86;100.00;102476.88;5095231;28;20456;-65
2022/11/12 08:38:01;;;;;;;57.17;8.38;;;;;;;15.87;100.00;102481.25;5100737;28;20509;-68
2022/11/12 08:40:29;;;;;;;52.47;8.00;;;;;;;15.90;100.00;102483.59;5106038;28;20024;-65
2022/11/12 08:43:03;;;;;;;53.47;8.18;;;;;;;15.94;100.00;102478.63;5108593;28;20035;-67
2022/11/12 08:45:32;;;;;;;50.50;7.78;;;;;;;16.02;100.00;102485.78;5103113;28;20031;-65
2022/11/12 08:48:10;;;;;;;45.08;6.75;;;;;;;15.98;100.00;102488.03;5086133;28;20076;-65
2022/11/12 08:50:36;;;;;;;55.47;7.75;;;;;;;15.90;100.00;102499.03;5103317;28;20083;-64
2022/11/12 08:53:09;;;;;;;52.65;8.02;;;;;;;15.96;100.00;102485.53;5104799;28;20058;-65
2022/11/12 08:55:35;;;;;;;52.13;6.85;;;;;;;15.99;100.00;102495.16;5103078;28;20032;-67
2022/11/12 08:58:02;;;;;;;47.53;7.50;;;;;;;15.96;100.00;102495.56;5091716;28;20043;-84
2022/11/12 09:00:30;;;;;;;45.05;7.57;;;;;;;15.90;100.00;102504.47;5121295;28;20048;-68
2022/11/12 09:03:00;;;;;;;44.00;7.35;;;;;;;15.93;100.00;102504.94;5110241;28;20490;-66
2022/11/12 09:05:26;;;;;;;52.22;7.43;;;;;;;15.94;100.00;102508.47;5114549;28;20555;-65
2022/11/12 09:08:00;;;;;;;54.92;8.70;;;;;;;15.94;100.00;102482.16;5118284;28;20041;-65
2022/11/12 09:10:26;;;;;;;45.42;6.63;;;;;;;16.03;100.00;102495.63;5086695;28;20499;-64
2022/11/12 09:12:52;;;;;;;54.08;8.15;;;;;;;15.98;100.00;102488.88;5104627;28;20402;-66
2022/11/12 09:15:18;;;;;;;56.03;7.93;;;;;;;15.83;100.00;102492.72;5110231;28;20124;-68
2022/11/12 09:17:44;;;;;;;51.30;8.38;;;;;;;15.81;100.00;102502.91;5094592;28;20058;-66
2022/11/12 09:20:09;;;;;;;52.63;7.32;;;;;;;15.77;100.00;102510.59;5067189;28;20387;-72
2022/11/12 09:22:34;;;;;;;47.45;6.88;;;;;;;15.85;100.00;102513.19;5099741;28;20027;-66
2022/11/12 09:25:00;;;;;;;53.75;7.88;;;;;;;15.76;100.00;102500.78;5092713;28;20101;-66
2022/11/12 09:27:26;;;;;;;52.53;8.45;;;;;;;15.62;100.00;102483.44;5071817;28;20089;-66
2022/11/12 09:29:51;;;;;;;50.83;8.05;;;;;;;15.67;100.00;102481.06;5084360;28;20046;-65
2022/11/12 09:32:17;;;;;;;48.92;7.13;;;;;;;15.78;100.00;102506.84;5112339;28;20102;-65
2022/11/12 09:34:42;;;;;;;58.10;8.52;;;;;;;15.77;100.00;102517.91;5081891;28;20035;-66
2022/11/12 09:37:08;;;;;;;50.80;7.75;;;;;;;15.89;100.00;102522.63;5088266;28;20067;-67
2022/11/12 09:39:33;;;;;;;56.80;8.70;;;;;;;15.98;100.00;102526.88;5087892;28;20084;-66
2022/11/12 09:41:58;;;;;;;47.25;6.97;;;;;;;15.93;100.00;102542.09;5081247;28;20064;-65
2022/11/12 09:44:24;;;;;;;54.40;7.60;;;;;;;15.86;100.00;102528.44;5092866;28;20034;-66
2022/11/12 09:46:49;;;;;;;54.05;8.50;;;;;;;15.96;100.00;102547.97;5081742;28;20532;-65
2022/11/12 09:49:22;;;;;;;56.25;8.52;;;;;;;15.97;100.00;102538.78;5106086;28;20024;-66
2022/11/12 09:52:05;;;;;;;42.47;7.75;;;;;;;15.98;100.00;102554.03;5112687;28;20035;-66
2022/11/12 09:54:33;;;;;;;59.00;8.40;;;;;;;16.03;100.00;102558.91;5099992;28;20028;-66
2022/11/12 09:57:00;;;;;;;53.15;7.97;;;;;;;16.01;100.00;102565.56;5092667;28;20458;-65
2022/11/12 09:59:36;;;;;;;51.20;8.43;;;;;;;16.15;100.00;102578.25;5107414;28;20031;-66
2022/11/12 10:02:30;;;;;;;48.03;8.05;;;;;;;16.16;100.00;102590.81;5084801;28;20052;-67
2022/11/12 10:05:30;;;;;;;46.65;7.55;;;;;;;16.20;100.00;102592.09;5070618;28;20030;-67
2022/11/12 10:08:18;;;;;;;53.80;7.57;;;;;;;16.15;100.00;102587.22;5071199;28;20127;-66
2022/11/12 10:10:57;;;;;;;55.40;8.00;;;;;;;16.10;100.00;102580.72;5085256;28;20098;-66
2022/11/12 10:13:51;;;;;;;53.45;7.53;;;;;;;16.20;100.00;102602.97;5107146;28;20483;-66
2022/11/12 10:19:54;;;;;;;48.95;7.25;;;;;;;16.22;100.00;102614.44;5104355;28;20061;-66
2022/11/12 10:22:41;;;;;;;47.08;7.53;;;;;;;16.36;100.00;102619.00;5063058;28;20044;-66
2022/11/12 10:25:15;;;;;;;46.92;7.30;;;;;;;16.37;100.00;102620.69;5109732;28;20032;-67
2022/11/12 10:27:42;;;;;;;49.70;8.20;;;;;;;16.26;100.00;102614.91;5091079;28;20024;-66
2022/11/12 10:30:22;;;;;;;44.00;7.30;;;;;;;16.39;100.00;102639.50;5100957;28;20118;-66
2022/11/12 10:32:49;;;;;;;43.33;7.32;;;;;;;16.37;100.00;102645.13;5068229;28;20031;-68
2022/11/12 10:35:20;;;;;;;49.95;8.48;;;;;;;16.36;100.00;102642.63;5073257;28;20039;-65
2022/11/12 10:38:01;;;;;;;50.15;7.55;;;;;;;16.25;100.00;102645.84;5109551;28;20132;-67
2022/11/12 10:40:27;;;;;;;50.03;7.80;;;;;;;16.25;100.00;102648.56;5100049;28;20103;-66
2022/11/12 10:42:56;;;;;;;47.70;7.00;;;;;;;16.20;100.00;102644.53;5111685;28;20443;-66
2022/11/12 10:45:22;;;;;;;51.92;8.25;;;;;;;16.31;100.00;102643.19;5106281;28;20109;-66
2022/11/12 10:47:48;;;;;;;49.58;8.10;;;;;;;16.36;100.00;102645.34;5103744;28;20102;-68
2022/11/12 10:50:19;;;;;;;49.03;7.72;;;;;;;16.46;100.00;102645.88;5094674;28;20100;-66
2022/11/12 10:53:06;;;;;;;48.33;7.50;;;;;;;16.46;100.00;102654.03;5082982;28;20028;-66
2022/11/12 10:55:34;;;;;;;48.53;7.78;;;;;;;16.29;100.00;102637.13;5105779;28;20031;-67
2022/11/12 10:58:15;;;;;;;49.33;7.47;;;;;;;16.28;100.00;102653.59;5111182;28;20110;-65
2022/11/12 11:01:16;;;;;;;44.17;7.55;;;;;;;16.19;100.00;102652.88;5065506;28;20044;-66
2022/11/12 11:04:06;;;;;;;50.70;7.25;;;;;;;16.22;100.00;102657.91;5075248;28;20124;-65
2022/11/12 11:06:32;;;;;;;39.88;6.65;;;;;;;16.11;100.00;102653.81;5036173;28;20037;-67
2022/11/12 11:09:12;;;;;;;54.58;8.05;;;;;;;16.13;100.00;102648.22;5036841;28;20068;-66
2022/11/12 11:11:52;;;;;;;50.28;6.68;;;;;;;16.19;100.00;102642.00;5036969;28;20044;-66
2022/11/12 11:14:21;;;;;;;50.08;7.90;;;;;;;16.16;100.00;102642.41;5053240;28;20041;-66
2022/11/12 11:16:52;;;;;;;56.90;8.45;;;;;;;16.17;100.00;102654.94;5053783;28;20694;-67
2022/11/12 11:19:18;;;;;;;49.17;8.43;;;;;;;16.29;100.00;102658.84;5053414;28;20201;-66
2022/11/12 11:21:49;;;;;;;43.17;6.47;;;;;;;16.26;100.00;102671.94;5033359;28;20037;-70
2022/11/12 11:24:14;;;;;;;47.03;6.93;;;;;;;16.26;100.00;102661.09;5049960;28;20037;-65
2022/11/12 11:27:10;;;;;;;50.03;7.63;;;;;;;16.25;100.00;102662.97;5055040;28;20037;-66
2022/11/12 11:29:54;;;;;;;47.08;7.28;;;;;;;16.19;100.00;102663.72;5037043;28;20037;-66
2022/11/12 11:33:02;;;;;;;46.28;7.82;;;;;;;16.13;100.00;102657.19;5054213;28;20045;-66
2022/11/12 11:35:51;;;;;;;46.33;7.32;;;;;;;16.09;100.00;102655.03;5040615;28;20029;-66
2022/11/12 11:38:41;;;;;;;55.58;8.15;;;;;;;16.18;100.00;102665.59;5071148;28;20445;-66
2022/11/12 11:41:12;;;;;;;40.47;6.47;;;;;;;16.06;100.00;102671.72;5113053;28;20035;-66
2022/11/12 11:43:57;;;;;;;44.80;6.63;;;;;;;16.12;100.00;102671.78;5092922;28;20027;-65
2022/11/12 11:46:43;;;;;;;42.72;5.95;;;;;;;16.09;100.00;102682.19;5102781;28;20039;-66